This is the latest recevied weather packets stored in our database for station/object XE2RCS-21. If no packets are shown the sender has not sent any weather packets the latest 1 day(s).
| Time | Temp. | Humidity | Pressure | Rain* | Wind** | Luminosity | Snow |
|---|---|---|---|---|---|---|---|
| 1777878034 | 12.78° C | 100% | 1010.7 hPa | - | - | - | - |
| 1777876234 | 13.89° C | 100% | 1010.9 hPa | - | - | - | - |
| 1777874433 | 13.89° C | 100% | 1010.9 hPa | - | - | - | - |
| 1777872633 | 15° C | 100% | 1012 hPa | - | - | - | - |
| 1777870833 | 15.56° C | 100% | 1014.5 hPa | - | - | - | - |
| 1777869033 | 16.67° C | 100% | 1017.2 hPa | - | - | - | - |
| 1777867233 | 15.56° C | 100% | 1017.3 hPa | - | - | - | - |
| 1777865435 | 16.11° C | 100% | 1017.7 hPa | - | - | - | - |
| 1777863634 | 17.22° C | 100% | 1018.2 hPa | - | - | - | - |
| 1777861834 | 17.22° C | 100% | 1018.2 hPa | - | - | - | - |
| 1777860034 | 17.78° C | 100% | 1018.8 hPa | - | - | - | - |
| 1777858234 | 18.89° C | 100% | 1019.5 hPa | - | - | - | - |
| 1777856434 | 20° C | 100% | 1020.6 hPa | - | - | - | - |
| 1777854634 | 21.67° C | 100% | 1021.7 hPa | - | - | - | - |
| 1777851033 | 25.56° C | 61% | 1022.4 hPa | - | - | - | - |
| 1777849233 | 25.56° C | 56% | 1022.6 hPa | - | - | - | - |
| 1777847433 | 27.22° C | 50% | 1022.8 hPa | - | - | - | - |
| 1777845632 | 27.78° C | 48% | 1023.1 hPa | - | - | - | - |
| 1777843834 | 26.67° C | 52% | 1023.4 hPa | - | - | - | - |
| 1777842034 | 26.67° C | 51% | 1023.7 hPa | - | - | - | - |
| 1777840234 | 31.67° C | 41% | 1024.2 hPa | - | - | - | - |
| 1777838434 | 26.67° C | 58% | 1024.7 hPa | - | - | - | - |
* Rain since midnight (hover to see other rain measurements)
** Current wind speed in m/s (hover to see current wind gust speed)